sensor_id;sensor_type;location;lat;lon;timestamp;temperature;humidity
37281;DHT22;23169;41.804;12.596;2023-09-07T00:01:13;23.30;1.00
37281;DHT22;23169;41.804;12.596;2023-09-07T00:03:43;23.30;1.00
37281;DHT22;23169;41.804;12.596;2023-09-07T00:06:12;23.30;1.00
37281;DHT22;23169;41.804;12.596;2023-09-07T00:08:41;23.30;1.00
37281;DHT22;23169;41.804;12.596;2023-09-07T00:11:12;23.20;1.00
37281;DHT22;23169;41.804;12.596;2023-09-07T00:13:41;23.20;1.00
37281;DHT22;23169;41.804;12.596;2023-09-07T00:16:10;23.10;1.00
37281;DHT22;23169;41.804;12.596;2023-09-07T00:18:40;23.00;1.00
37281;DHT22;23169;41.804;12.596;2023-09-07T00:21:08;23.00;1.00
37281;DHT22;23169;41.804;12.596;2023-09-07T00:23:40;23.10;1.00
37281;DHT22;23169;41.804;12.596;2023-09-07T00:26:11;23.10;1.00
37281;DHT22;23169;41.804;12.596;2023-09-07T00:28:44;23.00;1.00
37281;DHT22;23169;41.804;12.596;2023-09-07T00:31:14;23.00;1.00
37281;DHT22;23169;41.804;12.596;2023-09-07T00:33:45;22.90;1.00
37281;DHT22;23169;41.804;12.596;2023-09-07T00:36:14;22.80;1.00
37281;DHT22;23169;41.804;12.596;2023-09-07T00:38:45;22.70;1.00
37281;DHT22;23169;41.804;12.596;2023-09-07T00:41:15;22.80;1.00
37281;DHT22;23169;41.804;12.596;2023-09-07T00:43:46;22.80;1.00
37281;DHT22;23169;41.804;12.596;2023-09-07T00:46:15;22.80;1.00
37281;DHT22;23169;41.804;12.596;2023-09-07T00:48:45;22.80;1.00
37281;DHT22;23169;41.804;12.596;2023-09-07T00:51:14;22.80;1.00
37281;DHT22;23169;41.804;12.596;2023-09-07T00:53:45;22.70;1.00
37281;DHT22;23169;41.804;12.596;2023-09-07T00:56:14;22.60;1.00
37281;DHT22;23169;41.804;12.596;2023-09-07T00:58:43;22.70;1.00
37281;DHT22;23169;41.804;12.596;2023-09-07T01:01:22;22.70;1.00
37281;DHT22;23169;41.804;12.596;2023-09-07T01:03:51;22.80;1.00
37281;DHT22;23169;41.804;12.596;2023-09-07T01:06:29;22.80;1.00
37281;DHT22;23169;41.804;12.596;2023-09-07T01:09:04;22.80;1.00
37281;DHT22;23169;41.804;12.596;2023-09-07T01:11:38;22.90;1.00
37281;DHT22;23169;41.804;12.596;2023-09-07T01:14:07;22.90;1.00
37281;DHT22;23169;41.804;12.596;2023-09-07T01:16:37;22.90;1.00
37281;DHT22;23169;41.804;12.596;2023-09-07T01:19:10;22.80;1.00
37281;DHT22;23169;41.804;12.596;2023-09-07T01:21:41;22.70;1.00
37281;DHT22;23169;41.804;12.596;2023-09-07T01:24:11;22.60;1.00
37281;DHT22;23169;41.804;12.596;2023-09-07T01:26:41;22.60;1.00
37281;DHT22;23169;41.804;12.596;2023-09-07T01:29:11;22.50;1.00
37281;DHT22;23169;41.804;12.596;2023-09-07T01:31:41;22.50;1.00
37281;DHT22;23169;41.804;12.596;2023-09-07T01:34:10;22.70;1.00
37281;DHT22;23169;41.804;12.596;2023-09-07T01:36:41;22.50;1.00
37281;DHT22;23169;41.804;12.596;2023-09-07T01:39:10;22.60;1.00
37281;DHT22;23169;41.804;12.596;2023-09-07T01:41:41;22.50;1.00
37281;DHT22;23169;41.804;12.596;2023-09-07T01:44:11;22.50;1.00
37281;DHT22;23169;41.804;12.596;2023-09-07T01:46:40;22.50;1.00
37281;DHT22;23169;41.804;12.596;2023-09-07T01:49:09;22.50;1.00
37281;DHT22;23169;41.804;12.596;2023-09-07T01:51:45;22.50;1.00
37281;DHT22;23169;41.804;12.596;2023-09-07T01:54:14;22.40;1.00
37281;DHT22;23169;41.804;12.596;2023-09-07T01:56:43;22.40;1.00
37281;DHT22;23169;41.804;12.596;2023-09-07T01:59:13;22.30;1.00
37281;DHT22;23169;41.804;12.596;2023-09-07T02:01:42;22.30;1.00
37281;DHT22;23169;41.804;12.596;2023-09-07T02:04:11;22.30;1.00
37281;DHT22;23169;41.804;12.596;2023-09-07T02:06:41;22.10;1.00
37281;DHT22;23169;41.804;12.596;2023-09-07T02:09:10;22.00;1.00
37281;DHT22;23169;41.804;12.596;2023-09-07T02:11:40;22.00;1.00
37281;DHT22;23169;41.804;12.596;2023-09-07T02:14:10;22.00;1.00
37281;DHT22;23169;41.804;12.596;2023-09-07T02:16:42;21.90;1.00
37281;DHT22;23169;41.804;12.596;2023-09-07T02:19:12;21.90;1.00
37281;DHT22;23169;41.804;12.596;2023-09-07T02:21:41;21.80;1.00
37281;DHT22;23169;41.804;12.596;2023-09-07T02:24:10;21.70;1.00
37281;DHT22;23169;41.804;12.596;2023-09-07T02:26:40;21.70;1.00
37281;DHT22;23169;41.804;12.596;2023-09-07T02:29:14;21.60;1.00
37281;DHT22;23169;41.804;12.596;2023-09-07T02:31:45;21.50;1.00
37281;DHT22;23169;41.804;12.596;2023-09-07T02:34:16;21.50;1.00
37281;DHT22;23169;41.804;12.596;2023-09-07T02:36:45;21.40;1.00
37281;DHT22;23169;41.804;12.596;2023-09-07T02:41:44;21.40;1.00
37281;DHT22;23169;41.804;12.596;2023-09-07T02:44:14;21.50;1.00
37281;DHT22;23169;41.804;12.596;2023-09-07T02:46:43;21.50;1.00
37281;DHT22;23169;41.804;12.596;2023-09-07T02:49:12;21.50;1.00
37281;DHT22;23169;41.804;12.596;2023-09-07T02:51:42;21.50;1.00
37281;DHT22;23169;41.804;12.596;2023-09-07T02:54:10;21.40;1.00
37281;DHT22;23169;41.804;12.596;2023-09-07T02:56:39;21.30;1.00
37281;DHT22;23169;41.804;12.596;2023-09-07T02:59:08;21.20;1.00
37281;DHT22;23169;41.804;12.596;2023-09-07T03:01:39;21.10;1.00
37281;DHT22;23169;41.804;12.596;2023-09-07T03:04:08;21.00;1.00
37281;DHT22;23169;41.804;12.596;2023-09-07T03:06:36;20.90;1.00
37281;DHT22;23169;41.804;12.596;2023-09-07T03:09:05;20.80;1.00
37281;DHT22;23169;41.804;12.596;2023-09-07T03:11:38;20.80;1.00
37281;DHT22;23169;41.804;12.596;2023-09-07T03:14:07;20.70;1.00
37281;DHT22;23169;41.804;12.596;2023-09-07T03:19:10;20.70;1.00
37281;DHT22;23169;41.804;12.596;2023-09-07T03:21:39;20.70;1.00
37281;DHT22;23169;41.804;12.596;2023-09-07T03:24:08;20.60;1.00
37281;DHT22;23169;41.804;12.596;2023-09-07T03:26:37;20.60;1.00
37281;DHT22;23169;41.804;12.596;2023-09-07T03:29:07;20.60;1.00
37281;DHT22;23169;41.804;12.596;2023-09-07T03:31:39;20.70;1.00
37281;DHT22;23169;41.804;12.596;2023-09-07T03:34:08;20.80;1.00
37281;DHT22;23169;41.804;12.596;2023-09-07T03:36:38;20.90;1.00
37281;DHT22;23169;41.804;12.596;2023-09-07T03:39:09;20.90;1.00
37281;DHT22;23169;41.804;12.596;2023-09-07T03:41:38;20.90;1.00
37281;DHT22;23169;41.804;12.596;2023-09-07T03:44:08;20.90;1.00
37281;DHT22;23169;41.804;12.596;2023-09-07T03:46:39;21.00;1.00
37281;DHT22;23169;41.804;12.596;2023-09-07T03:51:41;21.00;1.00
37281;DHT22;23169;41.804;12.596;2023-09-07T03:54:12;21.00;1.00
37281;DHT22;23169;41.804;12.596;2023-09-07T03:56:42;21.00;1.00
37281;DHT22;23169;41.804;12.596;2023-09-07T03:59:11;20.90;1.00
37281;DHT22;23169;41.804;12.596;2023-09-07T04:01:42;20.90;1.00
37281;DHT22;23169;41.804;12.596;2023-09-07T04:04:12;20.90;1.00
37281;DHT22;23169;41.804;12.596;2023-09-07T04:09:09;20.70;1.00
37281;DHT22;23169;41.804;12.596;2023-09-07T04:11:40;20.80;1.00
37281;DHT22;23169;41.804;12.596;2023-09-07T04:14:10;20.80;1.00
37281;DHT22;23169;41.804;12.596;2023-09-07T04:16:41;20.70;1.00
37281;DHT22;23169;41.804;12.596;2023-09-07T04:19:13;20.80;1.00
37281;DHT22;23169;41.804;12.596;2023-09-07T04:21:42;20.80;1.00
37281;DHT22;23169;41.804;12.596;2023-09-07T04:24:10;20.80;1.00
37281;DHT22;23169;41.804;12.596;2023-09-07T04:26:39;20.80;1.00
37281;DHT22;23169;41.804;12.596;2023-09-07T04:29:08;20.90;1.00
37281;DHT22;23169;41.804;12.596;2023-09-07T04:31:39;20.90;1.00
37281;DHT22;23169;41.804;12.596;2023-09-07T04:36:38;21.10;1.00
37281;DHT22;23169;41.804;12.596;2023-09-07T04:39:06;21.10;1.00
37281;DHT22;23169;41.804;12.596;2023-09-07T04:41:36;21.20;1.00
37281;DHT22;23169;41.804;12.596;2023-09-07T04:44:04;21.20;1.00
37281;DHT22;23169;41.804;12.596;2023-09-07T04:46:34;21.20;1.00
37281;DHT22;23169;41.804;12.596;2023-09-07T04:49:02;21.20;1.00
37281;DHT22;23169;41.804;12.596;2023-09-07T04:51:32;21.20;1.00
37281;DHT22;23169;41.804;12.596;2023-09-07T04:54:01;21.10;1.00
37281;DHT22;23169;41.804;12.596;2023-09-07T04:59:01;21.10;1.00
37281;DHT22;23169;41.804;12.596;2023-09-07T05:01:31;21.00;1.00
37281;DHT22;23169;41.804;12.596;2023-09-07T05:04:00;21.00;1.00
37281;DHT22;23169;41.804;12.596;2023-09-07T05:06:32;20.90;1.00
37281;DHT22;23169;41.804;12.596;2023-09-07T05:09:05;21.00;1.00
37281;DHT22;23169;41.804;12.596;2023-09-07T05:11:38;20.90;1.00
37281;DHT22;23169;41.804;12.596;2023-09-07T05:14:07;21.00;1.00
37281;DHT22;23169;41.804;12.596;2023-09-07T05:16:36;21.00;1.00
37281;DHT22;23169;41.804;12.596;2023-09-07T05:19:05;21.00;1.00
37281;DHT22;23169;41.804;12.596;2023-09-07T05:21:34;21.10;1.00
37281;DHT22;23169;41.804;12.596;2023-09-07T05:24:02;21.10;1.00
37281;DHT22;23169;41.804;12.596;2023-09-07T05:26:33;21.20;1.00
37281;DHT22;23169;41.804;12.596;2023-09-07T05:29:01;21.30;1.00
37281;DHT22;23169;41.804;12.596;2023-09-07T05:31:31;21.30;1.00
37281;DHT22;23169;41.804;12.596;2023-09-07T05:34:00;21.30;1.00
37281;DHT22;23169;41.804;12.596;2023-09-07T05:36:30;21.30;1.00
37281;DHT22;23169;41.804;12.596;2023-09-07T05:38:59;21.30;1.00
37281;DHT22;23169;41.804;12.596;2023-09-07T05:41:31;21.20;1.00
37281;DHT22;23169;41.804;12.596;2023-09-07T05:44:00;21.20;1.00
37281;DHT22;23169;41.804;12.596;2023-09-07T05:46:30;21.20;1.00
37281;DHT22;23169;41.804;12.596;2023-09-07T05:48:59;21.10;1.00
37281;DHT22;23169;41.804;12.596;2023-09-07T05:51:30;21.20;1.00
37281;DHT22;23169;41.804;12.596;2023-09-07T05:53:59;21.20;1.00
37281;DHT22;23169;41.804;12.596;2023-09-07T05:56:31;21.30;1.00
37281;DHT22;23169;41.804;12.596;2023-09-07T05:59:03;21.20;1.00
37281;DHT22;23169;41.804;12.596;2023-09-07T06:01:34;21.30;1.00
37281;DHT22;23169;41.804;12.596;2023-09-07T06:04:03;21.30;1.00
37281;DHT22;23169;41.804;12.596;2023-09-07T06:06:34;21.30;1.00
37281;DHT22;23169;41.804;12.596;2023-09-07T06:09:03;21.40;1.00
37281;DHT22;23169;41.804;12.596;2023-09-07T06:11:38;21.40;1.00
37281;DHT22;23169;41.804;12.596;2023-09-07T06:14:08;21.40;1.00
37281;DHT22;23169;41.804;12.596;2023-09-07T06:16:42;21.50;1.00
37281;DHT22;23169;41.804;12.596;2023-09-07T06:19:11;21.50;1.00
37281;DHT22;23169;41.804;12.596;2023-09-07T06:21:43;21.60;1.00
37281;DHT22;23169;41.804;12.596;2023-09-07T06:24:12;21.60;1.00
37281;DHT22;23169;41.804;12.596;2023-09-07T06:26:43;21.70;1.00
37281;DHT22;23169;41.804;12.596;2023-09-07T06:29:14;21.70;1.00
37281;DHT22;23169;41.804;12.596;2023-09-07T06:31:44;21.80;1.00
37281;DHT22;23169;41.804;12.596;2023-09-07T06:34:14;21.90;1.00
37281;DHT22;23169;41.804;12.596;2023-09-07T06:36:45;22.00;1.00
37281;DHT22;23169;41.804;12.596;2023-09-07T06:39:14;22.10;1.00
37281;DHT22;23169;41.804;12.596;2023-09-07T06:41:46;22.20;1.00
37281;DHT22;23169;41.804;12.596;2023-09-07T06:44:15;22.30;1.00
37281;DHT22;23169;41.804;12.596;2023-09-07T06:46:47;22.40;1.00
37281;DHT22;23169;41.804;12.596;2023-09-07T06:49:15;22.50;1.00
37281;DHT22;23169;41.804;12.596;2023-09-07T06:51:45;22.60;1.00
37281;DHT22;23169;41.804;12.596;2023-09-07T06:54:14;22.70;1.00
37281;DHT22;23169;41.804;12.596;2023-09-07T06:56:43;22.70;1.00
37281;DHT22;23169;41.804;12.596;2023-09-07T06:59:12;22.80;1.00
37281;DHT22;23169;41.804;12.596;2023-09-07T07:01:41;22.90;1.00
37281;DHT22;23169;41.804;12.596;2023-09-07T07:04:10;23.00;1.00
37281;DHT22;23169;41.804;12.596;2023-09-07T07:06:39;23.10;1.00
37281;DHT22;23169;41.804;12.596;2023-09-07T07:09:07;23.20;1.00
37281;DHT22;23169;41.804;12.596;2023-09-07T07:11:38;23.30;1.00
37281;DHT22;23169;41.804;12.596;2023-09-07T07:14:07;23.40;1.00
37281;DHT22;23169;41.804;12.596;2023-09-07T07:16:37;23.50;1.00
37281;DHT22;23169;41.804;12.596;2023-09-07T07:19:06;23.50;1.00
37281;DHT22;23169;41.804;12.596;2023-09-07T07:21:36;23.60;1.00
37281;DHT22;23169;41.804;12.596;2023-09-07T07:24:05;24.60;1.00
37281;DHT22;23169;41.804;12.596;2023-09-07T07:26:36;23.80;1.00
37281;DHT22;23169;41.804;12.596;2023-09-07T07:29:05;23.80;1.00
37281;DHT22;23169;41.804;12.596;2023-09-07T07:31:34;23.90;1.00
37281;DHT22;23169;41.804;12.596;2023-09-07T07:34:03;24.00;1.00
37281;DHT22;23169;41.804;12.596;2023-09-07T07:36:34;24.10;1.00
37281;DHT22;23169;41.804;12.596;2023-09-07T07:39:05;24.20;1.00
37281;DHT22;23169;41.804;12.596;2023-09-07T07:41:36;24.20;1.00
37281;DHT22;23169;41.804;12.596;2023-09-07T07:44:06;24.40;1.00
37281;DHT22;23169;41.804;12.596;2023-09-07T07:46:52;24.50;1.00
37281;DHT22;23169;41.804;12.596;2023-09-07T07:49:22;24.60;1.00
37281;DHT22;23169;41.804;12.596;2023-09-07T07:51:55;24.70;1.00
37281;DHT22;23169;41.804;12.596;2023-09-07T07:54:27;24.90;1.00
37281;DHT22;23169;41.804;12.596;2023-09-07T07:56:58;24.90;1.00
37281;DHT22;23169;41.804;12.596;2023-09-07T07:59:29;25.00;1.00
37281;DHT22;23169;41.804;12.596;2023-09-07T08:01:59;25.10;1.00
37281;DHT22;23169;41.804;12.596;2023-09-07T08:04:32;25.10;1.00
37281;DHT22;23169;41.804;12.596;2023-09-07T08:07:03;25.40;1.00
37281;DHT22;23169;41.804;12.596;2023-09-07T08:09:38;25.30;1.00
37281;DHT22;23169;41.804;12.596;2023-09-07T08:12:06;25.50;1.00
37281;DHT22;23169;41.804;12.596;2023-09-07T08:14:36;26.30;1.00
37281;DHT22;23169;41.804;12.596;2023-09-07T08:17:04;25.70;1.00
37281;DHT22;23169;41.804;12.596;2023-09-07T08:19:38;25.90;1.00
37281;DHT22;23169;41.804;12.596;2023-09-07T08:22:08;26.00;1.00
37281;DHT22;23169;41.804;12.596;2023-09-07T08:24:38;26.00;1.00
37281;DHT22;23169;41.804;12.596;2023-09-07T08:27:10;26.20;1.00
37281;DHT22;23169;41.804;12.596;2023-09-07T08:29:45;26.40;1.00
37281;DHT22;23169;41.804;12.596;2023-09-07T08:32:20;26.50;1.00
37281;DHT22;23169;41.804;12.596;2023-09-07T08:34:49;26.70;1.00
37281;DHT22;23169;41.804;12.596;2023-09-07T08:37:19;26.90;1.00
37281;DHT22;23169;41.804;12.596;2023-09-07T08:39:49;27.10;1.00
37281;DHT22;23169;41.804;12.596;2023-09-07T08:42:18;27.40;1.00
37281;DHT22;23169;41.804;12.596;2023-09-07T08:44:49;27.60;1.00
37281;DHT22;23169;41.804;12.596;2023-09-07T08:47:20;27.80;1.00
37281;DHT22;23169;41.804;12.596;2023-09-07T08:49:49;27.90;1.00
37281;DHT22;23169;41.804;12.596;2023-09-07T08:52:19;27.90;1.00
37281;DHT22;23169;41.804;12.596;2023-09-07T08:54:48;28.00;1.00
37281;DHT22;23169;41.804;12.596;2023-09-07T08:57:18;27.90;1.00
37281;DHT22;23169;41.804;12.596;2023-09-07T08:59:49;28.00;1.00
37281;DHT22;23169;41.804;12.596;2023-09-07T09:02:18;28.10;1.00
37281;DHT22;23169;41.804;12.596;2023-09-07T09:04:49;28.00;1.00
37281;DHT22;23169;41.804;12.596;2023-09-07T09:07:19;28.00;1.00
37281;DHT22;23169;41.804;12.596;2023-09-07T09:09:50;28.20;1.00
37281;DHT22;23169;41.804;12.596;2023-09-07T09:12:19;28.40;1.00
37281;DHT22;23169;41.804;12.596;2023-09-07T09:14:47;28.50;1.00
37281;DHT22;23169;41.804;12.596;2023-09-07T09:17:16;28.60;1.00
37281;DHT22;23169;41.804;12.596;2023-09-07T09:19:47;28.80;1.00
37281;DHT22;23169;41.804;12.596;2023-09-07T09:22:16;29.10;1.00
37281;DHT22;23169;41.804;12.596;2023-09-07T09:24:49;29.00;1.00
37281;DHT22;23169;41.804;12.596;2023-09-07T09:27:20;29.20;1.00
37281;DHT22;23169;41.804;12.596;2023-09-07T09:29:50;29.30;1.00
37281;DHT22;23169;41.804;12.596;2023-09-07T09:32:19;29.50;1.00
37281;DHT22;23169;41.804;12.596;2023-09-07T09:34:49;29.80;1.00
37281;DHT22;23169;41.804;12.596;2023-09-07T09:37:18;29.90;1.00
37281;DHT22;23169;41.804;12.596;2023-09-07T09:39:50;30.10;1.00
37281;DHT22;23169;41.804;12.596;2023-09-07T09:42:20;30.30;1.00
37281;DHT22;23169;41.804;12.596;2023-09-07T09:44:50;30.60;1.00
37281;DHT22;23169;41.804;12.596;2023-09-07T09:47:21;30.70;1.00
37281;DHT22;23169;41.804;12.596;2023-09-07T09:49:51;31.00;1.00
37281;DHT22;23169;41.804;12.596;2023-09-07T09:52:21;31.00;1.00
37281;DHT22;23169;41.804;12.596;2023-09-07T09:54:52;31.10;1.00
37281;DHT22;23169;41.804;12.596;2023-09-07T09:57:24;31.20;1.00
37281;DHT22;23169;41.804;12.596;2023-09-07T09:59:53;31.30;1.00
37281;DHT22;23169;41.804;12.596;2023-09-07T10:04:53;31.60;1.00
37281;DHT22;23169;41.804;12.596;2023-09-07T10:07:40;31.70;1.00
37281;DHT22;23169;41.804;12.596;2023-09-07T10:10:12;31.80;1.00
37281;DHT22;23169;41.804;12.596;2023-09-07T10:12:43;31.90;1.00
37281;DHT22;23169;41.804;12.596;2023-09-07T10:15:25;32.00;1.00
37281;DHT22;23169;41.804;12.596;2023-09-07T10:18:13;32.20;1.00
37281;DHT22;23169;41.804;12.596;2023-09-07T10:20:57;32.30;1.00
37281;DHT22;23169;41.804;12.596;2023-09-07T10:23:39;32.50;1.00
37281;DHT22;23169;41.804;12.596;2023-09-07T10:26:15;32.70;1.00
37281;DHT22;23169;41.804;12.596;2023-09-07T10:28:46;32.70;1.00
37281;DHT22;23169;41.804;12.596;2023-09-07T10:31:19;32.50;1.00
37281;DHT22;23169;41.804;12.596;2023-09-07T10:33:49;32.60;1.00
37281;DHT22;23169;41.804;12.596;2023-09-07T10:36:23;32.70;1.00
37281;DHT22;23169;41.804;12.596;2023-09-07T10:38:53;32.90;1.00
37281;DHT22;23169;41.804;12.596;2023-09-07T10:41:23;33.10;1.00
37281;DHT22;23169;41.804;12.596;2023-09-07T10:43:54;33.50;1.00
37281;DHT22;23169;41.804;12.596;2023-09-07T10:46:25;33.70;1.00
37281;DHT22;23169;41.804;12.596;2023-09-07T10:48:57;33.80;1.00
37281;DHT22;23169;41.804;12.596;2023-09-07T10:51:29;33.90;1.00
37281;DHT22;23169;41.804;12.596;2023-09-07T10:53:59;33.90;1.00
37281;DHT22;23169;41.804;12.596;2023-09-07T10:56:33;33.80;1.00
37281;DHT22;23169;41.804;12.596;2023-09-07T10:59:02;34.00;1.00
37281;DHT22;23169;41.804;12.596;2023-09-07T11:01:32;34.20;1.00
37281;DHT22;23169;41.804;12.596;2023-09-07T11:04:00;34.40;1.00
37281;DHT22;23169;41.804;12.596;2023-09-07T11:06:30;34.60;1.00
37281;DHT22;23169;41.804;12.596;2023-09-07T11:09:00;34.60;1.00
37281;DHT22;23169;41.804;12.596;2023-09-07T11:11:31;34.80;1.00
37281;DHT22;23169;41.804;12.596;2023-09-07T11:14:04;34.70;1.00
37281;DHT22;23169;41.804;12.596;2023-09-07T11:16:36;34.80;1.00
37281;DHT22;23169;41.804;12.596;2023-09-07T11:19:06;34.80;1.00
37281;DHT22;23169;41.804;12.596;2023-09-07T11:21:35;34.70;1.00
37281;DHT22;23169;41.804;12.596;2023-09-07T11:24:05;34.90;1.00
37281;DHT22;23169;41.804;12.596;2023-09-07T11:26:43;35.10;1.00
37281;DHT22;23169;41.804;12.596;2023-09-07T11:29:16;35.30;1.00
37281;DHT22;23169;41.804;12.596;2023-09-07T11:31:46;35.40;1.00
37281;DHT22;23169;41.804;12.596;2023-09-07T11:34:15;35.60;1.00
37281;DHT22;23169;41.804;12.596;2023-09-07T11:36:44;36.20;1.00
37281;DHT22;23169;41.804;12.596;2023-09-07T11:39:13;36.80;1.00
37281;DHT22;23169;41.804;12.596;2023-09-07T11:41:44;37.20;1.00
37281;DHT22;23169;41.804;12.596;2023-09-07T11:44:13;37.60;1.00
37281;DHT22;23169;41.804;12.596;2023-09-07T11:46:43;37.80;1.00
37281;DHT22;23169;41.804;12.596;2023-09-07T11:49:13;38.10;1.00
37281;DHT22;23169;41.804;12.596;2023-09-07T11:51:43;38.30;1.00
37281;DHT22;23169;41.804;12.596;2023-09-07T11:54:12;38.60;1.00
37281;DHT22;23169;41.804;12.596;2023-09-07T11:56:41;39.00;99.90
37281;DHT22;23169;41.804;12.596;2023-09-07T11:59:12;39.50;99.90
37281;DHT22;23169;41.804;12.596;2023-09-07T12:01:41;39.30;1.00
37281;DHT22;23169;41.804;12.596;2023-09-07T12:04:11;38.90;99.90
37281;DHT22;23169;41.804;12.596;2023-09-07T12:06:41;38.20;99.90
37281;DHT22;23169;41.804;12.596;2023-09-07T12:09:10;38.00;99.90
37281;DHT22;23169;41.804;12.596;2023-09-07T12:11:42;37.90;99.90
37281;DHT22;23169;41.804;12.596;2023-09-07T12:14:12;38.00;99.90
37281;DHT22;23169;41.804;12.596;2023-09-07T12:16:42;37.90;99.90
37281;DHT22;23169;41.804;12.596;2023-09-07T12:19:11;38.00;99.90
37281;DHT22;23169;41.804;12.596;2023-09-07T12:21:41;38.50;99.90
37281;DHT22;23169;41.804;12.596;2023-09-07T12:24:12;39.30;99.90
37281;DHT22;23169;41.804;12.596;2023-09-07T12:26:43;39.70;99.90
37281;DHT22;23169;41.804;12.596;2023-09-07T12:29:12;39.90;99.90
37281;DHT22;23169;41.804;12.596;2023-09-07T12:31:43;39.70;99.90
37281;DHT22;23169;41.804;12.596;2023-09-07T12:34:13;39.50;99.90
37281;DHT22;23169;41.804;12.596;2023-09-07T12:36:45;39.40;99.90
37281;DHT22;23169;41.804;12.596;2023-09-07T12:39:14;39.70;99.90
37281;DHT22;23169;41.804;12.596;2023-09-07T12:41:44;40.00;99.90
37281;DHT22;23169;41.804;12.596;2023-09-07T12:44:14;40.50;99.90
37281;DHT22;23169;41.804;12.596;2023-09-07T12:46:43;41.10;99.90
37281;DHT22;23169;41.804;12.596;2023-09-07T12:49:13;41.70;99.90
37281;DHT22;23169;41.804;12.596;2023-09-07T12:51:45;41.80;99.90
37281;DHT22;23169;41.804;12.596;2023-09-07T12:54:16;42.20;99.90
37281;DHT22;23169;41.804;12.596;2023-09-07T12:56:46;42.30;99.90
37281;DHT22;23169;41.804;12.596;2023-09-07T12:59:15;41.90;99.90
37281;DHT22;23169;41.804;12.596;2023-09-07T13:01:45;41.80;99.90
37281;DHT22;23169;41.804;12.596;2023-09-07T13:04:14;41.80;99.90
37281;DHT22;23169;41.804;12.596;2023-09-07T13:06:44;42.10;99.90
37281;DHT22;23169;41.804;12.596;2023-09-07T13:09:13;42.50;99.90
37281;DHT22;23169;41.804;12.596;2023-09-07T13:11:43;42.20;99.90
37281;DHT22;23169;41.804;12.596;2023-09-07T13:14:12;41.20;99.90
37281;DHT22;23169;41.804;12.596;2023-09-07T13:16:41;41.00;99.90
37281;DHT22;23169;41.804;12.596;2023-09-07T13:19:10;41.30;99.90
37281;DHT22;23169;41.804;12.596;2023-09-07T13:21:40;41.70;99.90
37281;DHT22;23169;41.804;12.596;2023-09-07T13:24:11;42.10;99.90
37281;DHT22;23169;41.804;12.596;2023-09-07T13:26:41;42.40;99.90
37281;DHT22;23169;41.804;12.596;2023-09-07T13:29:10;42.40;99.90
37281;DHT22;23169;41.804;12.596;2023-09-07T13:31:39;42.60;99.90
37281;DHT22;23169;41.804;12.596;2023-09-07T13:34:08;42.80;99.90
37281;DHT22;23169;41.804;12.596;2023-09-07T13:36:38;42.20;99.90
37281;DHT22;23169;41.804;12.596;2023-09-07T13:39:07;42.40;99.90
37281;DHT22;23169;41.804;12.596;2023-09-07T13:41:36;42.20;99.90
37281;DHT22;23169;41.804;12.596;2023-09-07T13:44:06;42.40;99.90
37281;DHT22;23169;41.804;12.596;2023-09-07T13:46:35;42.60;99.90
37281;DHT22;23169;41.804;12.596;2023-09-07T13:49:04;42.50;99.90
37281;DHT22;23169;41.804;12.596;2023-09-07T13:51:35;42.00;99.90
37281;DHT22;23169;41.804;12.596;2023-09-07T13:54:08;41.50;99.90
37281;DHT22;23169;41.804;12.596;2023-09-07T13:56:37;41.30;99.90
37281;DHT22;23169;41.804;12.596;2023-09-07T13:59:24;41.00;99.90
37281;DHT22;23169;41.804;12.596;2023-09-07T14:01:57;40.90;99.90
37281;DHT22;23169;41.804;12.596;2023-09-07T14:04:28;41.30;99.90
37281;DHT22;23169;41.804;12.596;2023-09-07T14:06:57;41.80;99.90
37281;DHT22;23169;41.804;12.596;2023-09-07T14:09:29;41.80;99.90
37281;DHT22;23169;41.804;12.596;2023-09-07T14:11:57;42.10;99.90
37281;DHT22;23169;41.804;12.596;2023-09-07T14:14:27;42.50;99.90
37281;DHT22;23169;41.804;12.596;2023-09-07T14:16:56;43.00;99.90
37281;DHT22;23169;41.804;12.596;2023-09-07T14:19:27;43.30;99.90
37281;DHT22;23169;41.804;12.596;2023-09-07T14:21:59;43.30;99.90
37281;DHT22;23169;41.804;12.596;2023-09-07T14:24:29;43.60;99.90
37281;DHT22;23169;41.804;12.596;2023-09-07T14:26:58;43.60;99.90
37281;DHT22;23169;41.804;12.596;2023-09-07T14:29:27;43.90;99.90
37281;DHT22;23169;41.804;12.596;2023-09-07T14:32:02;44.00;99.90
37281;DHT22;23169;41.804;12.596;2023-09-07T14:34:33;44.10;99.90
37281;DHT22;23169;41.804;12.596;2023-09-07T14:37:02;44.10;99.90
37281;DHT22;23169;41.804;12.596;2023-09-07T14:39:32;44.20;99.90
37281;DHT22;23169;41.804;12.596;2023-09-07T14:42:01;44.00;99.90
37281;DHT22;23169;41.804;12.596;2023-09-07T14:44:33;43.80;99.90
37281;DHT22;23169;41.804;12.596;2023-09-07T14:47:02;43.50;99.90
37281;DHT22;23169;41.804;12.596;2023-09-07T14:49:34;43.10;99.90
37281;DHT22;23169;41.804;12.596;2023-09-07T14:52:05;40.90;99.90
37281;DHT22;23169;41.804;12.596;2023-09-07T14:54:35;38.70;99.90
37281;DHT22;23169;41.804;12.596;2023-09-07T14:57:05;37.80;99.90
37281;DHT22;23169;41.804;12.596;2023-09-07T14:59:35;37.60;99.90
37281;DHT22;23169;41.804;12.596;2023-09-07T15:02:04;36.50;99.90
37281;DHT22;23169;41.804;12.596;2023-09-07T15:04:34;36.20;99.90
37281;DHT22;23169;41.804;12.596;2023-09-07T15:07:03;36.10;99.90
37281;DHT22;23169;41.804;12.596;2023-09-07T15:09:33;35.90;99.90
37281;DHT22;23169;41.804;12.596;2023-09-07T15:12:03;35.80;99.90
37281;DHT22;23169;41.804;12.596;2023-09-07T15:14:34;35.20;99.90
37281;DHT22;23169;41.804;12.596;2023-09-07T15:17:04;35.00;99.90
37281;DHT22;23169;41.804;12.596;2023-09-07T15:19:34;34.20;99.90
37281;DHT22;23169;41.804;12.596;2023-09-07T15:22:04;34.40;99.90
37281;DHT22;23169;41.804;12.596;2023-09-07T15:24:35;34.60;99.90
37281;DHT22;23169;41.804;12.596;2023-09-07T15:27:10;34.20;99.90
37281;DHT22;23169;41.804;12.596;2023-09-07T15:29:40;34.30;99.90
37281;DHT22;23169;41.804;12.596;2023-09-07T15:32:10;34.60;99.90
37281;DHT22;23169;41.804;12.596;2023-09-07T15:34:40;34.40;99.90
37281;DHT22;23169;41.804;12.596;2023-09-07T15:37:10;33.80;99.90
37281;DHT22;23169;41.804;12.596;2023-09-07T15:39:41;33.50;99.90
37281;DHT22;23169;41.804;12.596;2023-09-07T15:42:14;33.50;99.90
37281;DHT22;23169;41.804;12.596;2023-09-07T15:44:47;33.40;99.90
37281;DHT22;23169;41.804;12.596;2023-09-07T15:47:16;33.70;99.90
37281;DHT22;23169;41.804;12.596;2023-09-07T15:49:46;34.10;99.90
37281;DHT22;23169;41.804;12.596;2023-09-07T15:52:18;34.50;1.00
37281;DHT22;23169;41.804;12.596;2023-09-07T15:54:47;34.20;99.90
37281;DHT22;23169;41.804;12.596;2023-09-07T15:57:16;34.10;99.90
37281;DHT22;23169;41.804;12.596;2023-09-07T15:59:46;33.40;99.90
37281;DHT22;23169;41.804;12.596;2023-09-07T16:02:15;32.70;99.90
37281;DHT22;23169;41.804;12.596;2023-09-07T16:04:44;32.30;99.90